createdAt,value
2022-10-19T00:01:02.616Z,111
2022-10-19T00:04:03.627Z,103
2022-10-19T00:07:02.660Z,132
2022-10-19T00:10:02.594Z,126
2022-10-19T00:12:02.614Z,135
2022-10-19T00:14:02.605Z,118
2022-10-19T00:17:02.639Z,140
2022-10-19T00:20:02.609Z,119
2022-10-19T00:22:02.619Z,140
2022-10-19T00:24:02.623Z,137
2022-10-19T00:27:02.615Z,149
2022-10-19T00:30:02.620Z,137
2022-10-19T00:33:02.623Z,129
2022-10-19T00:36:02.593Z,123
2022-10-19T00:38:02.621Z,135
2022-10-19T00:40:02.638Z,120
2022-10-19T00:43:02.620Z,106
2022-10-19T00:45:02.655Z,87
2022-10-19T00:48:02.633Z,134
2022-10-19T00:51:02.682Z,100
2022-10-19T00:54:02.612Z,104
2022-10-19T00:56:02.646Z,128
2022-10-19T00:59:02.618Z,136
2022-10-19T01:01:02.677Z,125
2022-10-19T01:04:02.650Z,117
2022-10-19T01:06:02.638Z,129
2022-10-19T01:08:02.648Z,194
2022-10-19T01:10:02.647Z,119
2022-10-19T01:13:02.632Z,122
2022-10-19T01:15:02.613Z,103
2022-10-19T01:18:02.647Z,108
2022-10-19T01:21:02.623Z,125
2022-10-19T01:23:02.646Z,112
2022-10-19T01:25:02.657Z,112
2022-10-19T01:28:02.654Z,157
2022-10-19T01:30:02.635Z,126
2022-10-19T01:34:02.631Z,120
2022-10-19T01:37:02.642Z,135
2022-10-19T01:39:02.638Z,118
2022-10-19T01:42:02.636Z,135
2022-10-19T01:44:02.630Z,125
2022-10-19T01:46:02.658Z,141
2022-10-19T01:49:02.659Z,122
2022-10-19T01:51:02.623Z,133
2022-10-19T01:54:02.663Z,121
2022-10-19T01:57:02.673Z,173
2022-10-19T02:00:02.629Z,169
2022-10-19T02:02:02.670Z,103
2022-10-19T02:05:02.720Z,112
2022-10-19T02:08:17.916Z,157
2022-10-19T02:10:02.680Z,136
2022-10-19T02:13:02.700Z,145
2022-10-19T02:16:02.654Z,137
2022-10-19T02:19:02.646Z,130
2022-10-19T02:21:02.651Z,146
2022-10-19T02:23:02.662Z,147
2022-10-19T02:26:02.655Z,145
2022-10-19T02:29:02.670Z,148
2022-10-19T02:31:03.158Z,134
2022-10-19T02:34:02.613Z,188
2022-10-19T02:37:02.672Z,155
2022-10-19T02:40:02.643Z,157
2022-10-19T02:42:02.621Z,174
2022-10-19T02:44:02.629Z,174
2022-10-19T02:46:02.646Z,184
2022-10-19T02:48:02.635Z,165
2022-10-19T02:51:02.629Z,139
2022-10-19T02:53:03.669Z,177
2022-10-19T02:56:02.647Z,164
2022-10-19T02:59:02.624Z,184
2022-10-19T03:01:02.652Z,180
2022-10-19T03:03:02.698Z,184
2022-10-19T03:06:02.656Z,150
2022-10-19T03:09:02.608Z,199
2022-10-19T03:11:02.658Z,156
2022-10-19T03:13:02.654Z,202
2022-10-19T03:16:02.986Z,195
2022-10-19T03:19:02.622Z,222
2022-10-19T03:21:02.659Z,168
2022-10-19T03:24:02.627Z,204
2022-10-19T03:26:02.635Z,158
2022-10-19T03:28:02.661Z,198
2022-10-19T03:31:02.646Z,214
2022-10-19T03:33:02.642Z,231
2022-10-19T03:35:02.662Z,211
2022-10-19T03:38:02.668Z,213
2022-10-19T03:40:02.664Z,205
2022-10-19T03:43:03.064Z,182
2022-10-19T03:46:02.635Z,177
2022-10-19T03:48:02.680Z,175
2022-10-19T03:51:02.646Z,174
2022-10-19T03:54:02.644Z,201
2022-10-19T03:56:02.689Z,252
2022-10-19T03:59:02.652Z,210
2022-10-19T04:02:02.653Z,243
2022-10-19T04:04:02.644Z,267
2022-10-19T04:06:02.648Z,227
2022-10-19T04:09:02.644Z,222
2022-10-19T04:11:02.659Z,241
2022-10-19T04:13:02.672Z,223
2022-10-19T04:16:10.079Z,200
2022-10-19T04:19:02.692Z,193
2022-10-19T04:22:02.676Z,243
2022-10-19T04:25:02.650Z,224
2022-10-19T04:27:02.690Z,217
2022-10-19T04:29:02.749Z,217
2022-10-19T04:32:02.681Z,218
2022-10-19T04:35:02.652Z,194
2022-10-19T04:37:02.673Z,209
2022-10-19T04:39:02.684Z,209
2022-10-19T04:42:02.678Z,190
2022-10-19T04:44:02.688Z,189
2022-10-19T04:47:02.709Z,138
2022-10-19T04:50:02.705Z,196
2022-10-19T04:53:02.700Z,166
2022-10-19T04:56:02.659Z,183
2022-10-19T04:58:02.683Z,146
2022-10-19T05:01:02.771Z,144
2022-10-19T05:04:02.673Z,162
2022-10-19T05:06:02.737Z,152
2022-10-19T05:09:02.700Z,153
2022-10-19T05:12:02.696Z,169
2022-10-19T05:15:02.672Z,144
2022-10-19T05:17:02.692Z,137
2022-10-19T05:19:02.688Z,142
2022-10-19T05:22:02.677Z,128
2022-10-19T05:24:02.703Z,150
2022-10-19T05:27:02.675Z,130
2022-10-19T05:29:02.732Z,142
2022-10-19T05:31:02.662Z,135
2022-10-19T05:34:02.750Z,141
2022-10-19T05:36:02.674Z,115
2022-10-19T05:39:02.694Z,121
2022-10-19T05:42:02.696Z,120
2022-10-19T05:45:02.697Z,103
2022-10-19T05:48:02.699Z,127
2022-10-19T05:50:02.700Z,103
2022-10-19T05:53:02.688Z,133
2022-10-19T05:56:02.710Z,99
2022-10-19T05:59:02.665Z,158
2022-10-19T06:01:02.706Z,146
2022-10-19T06:04:02.684Z,145
2022-10-19T06:06:02.689Z,133
2022-10-19T06:09:02.727Z,131
2022-10-19T06:12:02.678Z,149
2022-10-19T06:14:02.701Z,134
2022-10-19T06:16:02.690Z,140
2022-10-19T06:18:02.692Z,158
2022-10-19T06:21:02.702Z,154
2022-10-19T06:23:02.693Z,152
2022-10-19T06:26:02.776Z,164
2022-10-19T06:29:02.705Z,170
2022-10-19T06:31:04.858Z,147
2022-10-19T06:34:02.766Z,170
2022-10-19T06:37:02.676Z,171
2022-10-19T06:39:02.705Z,167
2022-10-19T06:42:02.680Z,203
2022-10-19T06:44:02.729Z,202
2022-10-19T06:47:02.706Z,195
2022-10-19T06:49:02.719Z,209
2022-10-19T06:51:02.679Z,200
2022-10-19T06:54:02.728Z,240
2022-10-19T06:57:02.715Z,256
2022-10-19T07:00:02.730Z,240
2022-10-19T07:03:02.694Z,210
2022-10-19T07:05:04.561Z,249
2022-10-19T07:08:02.773Z,253
2022-10-19T07:10:02.730Z,244
2022-10-19T07:12:02.702Z,222
2022-10-19T07:15:02.716Z,224
2022-10-19T07:17:02.731Z,214
2022-10-19T07:19:02.733Z,217
2022-10-19T07:21:02.701Z,214
2022-10-19T07:24:02.715Z,235
2022-10-19T07:26:02.707Z,260
2022-10-19T07:28:02.727Z,237
2022-10-19T07:31:02.759Z,237
2022-10-19T07:34:02.689Z,229
2022-10-19T07:36:02.782Z,226
2022-10-19T07:39:02.736Z,239
2022-10-19T07:41:02.728Z,262
2022-10-19T07:43:02.700Z,225
2022-10-19T07:46:02.700Z,237
2022-10-19T07:48:02.708Z,217
2022-10-19T07:51:02.723Z,196
2022-10-19T07:54:02.692Z,222
2022-10-19T07:56:02.723Z,188
2022-10-19T07:58:02.719Z,170
2022-10-19T08:01:02.716Z,189
2022-10-19T08:05:05.157Z,196
2022-10-19T08:08:02.705Z,187
2022-10-19T08:10:02.730Z,169
2022-10-19T08:13:02.714Z,201
2022-10-19T08:16:02.687Z,172
2022-10-19T08:18:02.702Z,170
2022-10-19T08:20:02.709Z,214
2022-10-19T08:22:02.719Z,193
2022-10-19T08:25:02.711Z,195
2022-10-19T08:28:02.705Z,189
2022-10-19T08:30:02.745Z,169
2022-10-19T08:32:02.717Z,202
2022-10-19T08:35:05.066Z,209
2022-10-19T08:38:03.009Z,207
2022-10-19T08:41:02.697Z,229
2022-10-19T08:43:02.748Z,209
2022-10-19T08:46:02.720Z,165
2022-10-19T08:48:02.709Z,191
2022-10-19T08:50:02.747Z,184
2022-10-19T08:52:02.727Z,203
2022-10-19T08:55:02.711Z,207
2022-10-19T08:57:02.711Z,169
2022-10-19T08:59:02.768Z,177
2022-10-19T09:02:02.747Z,190
2022-10-19T09:05:02.738Z,180
2022-10-19T09:07:02.707Z,183
2022-10-19T09:10:02.758Z,170
2022-10-19T09:13:02.729Z,234
2022-10-19T09:15:02.724Z,187
2022-10-19T09:17:02.714Z,208
2022-10-19T09:20:02.736Z,173
2022-10-19T09:22:02.761Z,205
2022-10-19T09:24:02.820Z,223
2022-10-19T09:27:02.741Z,232
2022-10-19T09:29:02.740Z,223
2022-10-19T09:31:02.725Z,236
2022-10-19T09:34:02.750Z,240
2022-10-19T09:36:02.731Z,261
2022-10-19T09:39:02.739Z,256
2022-10-19T09:41:02.746Z,306
2022-10-19T09:44:02.763Z,296
2022-10-19T09:47:02.719Z,283
2022-10-19T09:50:02.715Z,287
2022-10-19T09:53:02.747Z,310
2022-10-19T09:55:02.782Z,314
2022-10-19T09:58:02.762Z,297
2022-10-19T10:01:02.786Z,327
2022-10-19T10:04:02.741Z,297
2022-10-19T10:07:02.762Z,270
2022-10-19T10:09:02.844Z,278
2022-10-19T10:12:02.732Z,382
2022-10-19T10:14:04.005Z,383
2022-10-19T10:17:02.741Z,346
2022-10-19T10:20:02.740Z,428
2022-10-19T10:23:02.755Z,341
2022-10-19T10:25:02.755Z,364
2022-10-19T10:28:02.751Z,366
2022-10-19T10:30:02.750Z,350
2022-10-19T10:33:08.016Z,379
2022-10-19T10:36:02.755Z,402
2022-10-19T10:38:02.776Z,356
2022-10-19T10:40:03.782Z,372
2022-10-19T10:43:02.748Z,442
2022-10-19T10:45:02.783Z,347
2022-10-19T10:48:02.809Z,380
2022-10-19T10:50:02.747Z,282
2022-10-19T10:53:02.758Z,287
2022-10-19T10:56:02.767Z,248
2022-10-19T10:58:02.787Z,218
2022-10-19T11:01:05.286Z,137
2022-10-19T11:04:02.774Z,98
2022-10-19T11:07:02.848Z,132
2022-10-19T11:10:02.780Z,64
2022-10-19T11:13:02.752Z,55
2022-10-19T11:15:02.778Z,58
2022-10-19T11:17:02.832Z,58
2022-10-19T11:20:02.768Z,64
2022-10-19T11:23:02.829Z,84
2022-10-19T11:26:02.780Z,81
2022-10-19T11:28:02.840Z,156
2022-10-19T11:31:02.752Z,191
2022-10-19T11:33:02.797Z,159
2022-10-19T11:36:02.782Z,135
2022-10-19T11:39:02.737Z,102
2022-10-19T11:41:17.631Z,67
2022-10-19T11:44:02.770Z,72
2022-10-19T11:46:02.790Z,51
2022-10-19T11:49:02.788Z,75
2022-10-19T11:52:02.766Z,64
2022-10-19T11:55:02.768Z,35
2022-10-19T11:57:04.915Z,33
2022-10-19T12:00:08.437Z,39
2022-10-19T12:02:02.845Z,49
2022-10-19T12:05:02.785Z,26
2022-10-19T12:08:02.808Z,29
2022-10-19T12:11:02.786Z,24
2022-10-19T12:13:02.799Z,25
2022-10-19T12:15:02.823Z,32
2022-10-19T12:18:02.771Z,33
2022-10-19T12:21:02.780Z,26
2022-10-19T12:24:02.778Z,43
2022-10-19T12:27:02.926Z,29
2022-10-19T12:30:02.773Z,30
2022-10-19T12:33:02.758Z,42
2022-10-19T12:35:02.767Z,22
2022-10-19T12:38:02.753Z,36
2022-10-19T12:40:02.756Z,37
2022-10-19T12:42:02.790Z,37
2022-10-19T12:45:02.769Z,30
2022-10-19T12:47:09.443Z,33
2022-10-19T12:50:02.766Z,25
2022-10-19T12:53:02.739Z,41
2022-10-19T12:55:02.757Z,53
2022-10-19T12:57:02.800Z,29
2022-10-19T12:59:02.810Z,39
2022-10-19T13:02:02.812Z,30
2022-10-19T13:05:03.836Z,23
2022-10-19T13:07:04.081Z,25
2022-10-19T13:10:02.793Z,30
2022-10-19T13:13:02.858Z,33
2022-10-19T13:16:02.779Z,32
2022-10-19T13:18:02.821Z,23
2022-10-19T13:21:03.571Z,25
2022-10-19T13:23:02.810Z,32
2022-10-19T13:26:02.765Z,22
2022-10-19T13:29:02.788Z,21
2022-10-19T13:31:05.889Z,22
2022-10-19T13:33:02.855Z,42
2022-10-19T13:36:02.793Z,30
2022-10-19T13:39:02.824Z,42
2022-10-19T13:42:02.802Z,56
2022-10-19T13:45:02.811Z,15
2022-10-19T13:48:02.816Z,17
2022-10-19T13:50:02.878Z,14
2022-10-19T13:53:02.801Z,50
2022-10-19T13:55:02.808Z,36
2022-10-19T13:57:02.844Z,23
2022-10-19T14:00:02.828Z,20
2022-10-19T14:03:03.601Z,19
2022-10-19T14:06:02.813Z,18
2022-10-19T14:08:02.830Z,31
2022-10-19T14:11:02.807Z,20
2022-10-19T14:14:02.803Z,26
2022-10-19T14:16:02.808Z,18
2022-10-19T14:18:05.090Z,35
2022-10-19T14:20:02.827Z,26
2022-10-19T14:23:02.845Z,22
2022-10-19T14:26:02.821Z,22
2022-10-19T14:29:02.832Z,29
2022-10-19T14:31:02.785Z,17
2022-10-19T14:34:02.827Z,20
2022-10-19T14:37:02.808Z,22
2022-10-19T14:40:02.916Z,27
2022-10-19T14:43:02.803Z,27
2022-10-19T14:45:02.820Z,25
2022-10-19T14:48:02.824Z,48
2022-10-19T14:50:02.881Z,49
2022-10-19T14:52:02.820Z,30
2022-10-19T14:55:02.808Z,19
2022-10-19T14:58:02.827Z,24
2022-10-19T15:00:02.892Z,13
2022-10-19T15:03:02.865Z,19
2022-10-19T15:06:02.819Z,43
2022-10-19T15:09:02.822Z,16
2022-10-19T15:11:02.810Z,26
2022-10-19T15:14:02.816Z,36
2022-10-19T15:16:02.816Z,18
2022-10-19T15:18:02.860Z,35
2022-10-19T15:20:04.577Z,22
2022-10-19T15:22:03.257Z,14
2022-10-19T15:25:02.793Z,16
2022-10-19T15:28:03.882Z,40
2022-10-19T15:30:02.907Z,57
2022-10-19T15:33:02.800Z,52
2022-10-19T15:35:02.812Z,61
2022-10-19T15:38:02.796Z,66
2022-10-19T15:40:02.838Z,97
2022-10-19T15:43:02.806Z,88
2022-10-19T15:45:02.819Z,67
2022-10-19T15:48:02.841Z,71
2022-10-19T15:51:02.823Z,81
2022-10-19T15:54:02.799Z,82
2022-10-19T15:59:02.825Z,74
2022-10-19T16:02:02.849Z,80
2022-10-19T16:04:02.822Z,72
2022-10-19T16:07:02.818Z,103
2022-10-19T16:10:02.806Z,87
2022-10-19T16:12:02.850Z,114
2022-10-19T16:15:03.526Z,91
2022-10-19T16:18:02.829Z,70
2022-10-19T16:20:02.819Z,84
2022-10-19T16:23:02.863Z,73
2022-10-19T16:26:02.892Z,78
2022-10-19T16:29:02.875Z,58
2022-10-19T16:31:02.844Z,60
2022-10-19T16:34:02.841Z,57
2022-10-19T16:36:02.851Z,61
2022-10-19T16:39:02.866Z,68
2022-10-19T16:42:02.847Z,53
2022-10-19T16:45:02.842Z,71
2022-10-19T16:48:03.163Z,69
2022-10-19T16:51:02.838Z,57
2022-10-19T16:53:02.849Z,65
2022-10-19T16:55:02.848Z,94
2022-10-19T16:58:02.842Z,35
2022-10-19T17:00:02.859Z,41
2022-10-19T17:03:02.869Z,60
2022-10-19T17:06:02.844Z,33
2022-10-19T17:09:30.120Z,48
2022-10-19T17:12:02.858Z,41
2022-10-19T17:14:02.880Z,56
2022-10-19T17:17:02.836Z,85
2022-10-19T17:19:02.898Z,49
2022-10-19T17:22:02.856Z,56
2022-10-19T17:25:02.867Z,47
2022-10-19T17:28:02.822Z,70
2022-10-19T17:30:02.885Z,46
2022-10-19T17:32:02.856Z,86
2022-10-19T17:35:02.865Z,66
2022-10-19T17:38:02.834Z,72
2022-10-19T17:40:02.858Z,57
2022-10-19T17:43:02.819Z,74
2022-10-19T17:46:02.832Z,57
2022-10-19T17:49:02.872Z,81
2022-10-19T17:51:02.837Z,121
2022-10-19T17:54:02.850Z,69
2022-10-19T17:56:02.831Z,80
2022-10-19T17:59:02.906Z,66
2022-10-19T18:02:02.882Z,65
2022-10-19T18:05:02.839Z,69
2022-10-19T18:07:02.902Z,74
2022-10-19T18:10:02.840Z,65
2022-10-19T18:13:02.859Z,95
2022-10-19T18:15:02.919Z,59
2022-10-19T18:18:02.857Z,57
2022-10-19T18:21:02.858Z,50
2022-10-19T18:23:02.849Z,106
2022-10-19T18:25:02.863Z,84
2022-10-19T18:27:02.865Z,86
2022-10-19T18:30:02.866Z,86
2022-10-19T18:34:02.867Z,64
2022-10-19T18:36:02.883Z,56
2022-10-19T18:39:02.972Z,63
2022-10-19T18:42:02.868Z,74
2022-10-19T18:44:02.969Z,44
2022-10-19T18:47:02.865Z,102
2022-10-19T18:50:02.934Z,51
2022-10-19T18:53:02.880Z,65
2022-10-19T18:56:02.868Z,49
2022-10-19T18:58:02.902Z,56
2022-10-19T19:00:03.049Z,47
2022-10-19T19:03:02.894Z,64
2022-10-19T19:06:02.878Z,65
2022-10-19T19:08:02.892Z,70
2022-10-19T19:11:02.870Z,73
2022-10-19T19:14:02.880Z,65
2022-10-19T19:16:10.074Z,101
2022-10-19T19:19:02.888Z,76
2022-10-19T19:21:02.884Z,52
2022-10-19T19:23:02.922Z,56
2022-10-19T19:26:02.891Z,53
2022-10-19T19:28:03.007Z,75
2022-10-19T19:31:02.890Z,77
2022-10-19T19:34:02.870Z,89
2022-10-19T19:37:04.176Z,76
2022-10-19T19:40:02.902Z,60
2022-10-19T19:43:02.864Z,67
2022-10-19T19:46:04.570Z,68
2022-10-19T19:48:02.885Z,70
2022-10-19T19:51:02.885Z,80
2022-10-19T19:54:02.905Z,78
2022-10-19T19:57:02.855Z,67
2022-10-19T19:59:02.892Z,88
2022-10-19T20:01:02.881Z,71
2022-10-19T20:06:02.896Z,69
2022-10-19T20:08:02.907Z,69
2022-10-19T20:10:02.936Z,70
2022-10-19T20:15:02.898Z,67
2022-10-19T20:17:02.894Z,71
2022-10-19T20:19:02.929Z,64
2022-10-19T20:22:02.893Z,78
2022-10-19T20:24:02.926Z,85
2022-10-19T20:27:02.867Z,112
2022-10-19T20:29:02.905Z,72
2022-10-19T20:32:02.880Z,91
2022-10-19T20:34:02.914Z,112
2022-10-19T20:36:02.905Z,133
2022-10-19T20:39:02.891Z,77
2022-10-19T20:41:04.183Z,109
2022-10-19T20:44:02.922Z,91
2022-10-19T20:46:02.930Z,107
2022-10-19T20:49:02.920Z,188
2022-10-19T20:51:02.906Z,89
2022-10-19T20:54:03.013Z,86
2022-10-19T20:57:02.909Z,84
2022-10-19T21:02:02.915Z,102
2022-10-19T21:05:02.901Z,74
2022-10-19T21:07:02.911Z,122
2022-10-19T21:10:02.926Z,100
2022-10-19T21:12:03.024Z,88
2022-10-19T21:15:02.935Z,119
2022-10-19T21:18:02.924Z,102
2022-10-19T21:20:02.895Z,87
2022-10-19T21:23:02.897Z,102
2022-10-19T21:26:02.911Z,116
2022-10-19T21:28:04.171Z,79
2022-10-19T21:31:02.947Z,90
2022-10-19T21:33:02.939Z,108
2022-10-19T21:35:02.958Z,89
2022-10-19T21:38:02.887Z,107
2022-10-19T21:41:02.900Z,115
2022-10-19T21:43:02.890Z,129
2022-10-19T21:46:02.894Z,94
2022-10-19T21:48:02.908Z,94
2022-10-19T21:50:02.921Z,92
2022-10-19T21:53:02.888Z,97
2022-10-19T21:55:02.943Z,99
2022-10-19T21:58:02.902Z,176
2022-10-19T22:00:02.978Z,77
2022-10-19T22:03:02.962Z,131
2022-10-19T22:06:02.923Z,115
2022-10-19T22:09:02.947Z,104
2022-10-19T22:11:02.909Z,107
2022-10-19T22:14:02.948Z,124
2022-10-19T22:17:02.900Z,120
2022-10-19T22:19:02.937Z,116
2022-10-19T22:22:02.916Z,148
2022-10-19T22:25:02.936Z,116
2022-10-19T22:28:03.003Z,121
2022-10-19T22:31:02.893Z,120
2022-10-19T22:34:02.932Z,104
2022-10-19T22:39:03.228Z,92
2022-10-19T22:42:02.938Z,132
2022-10-19T22:44:02.957Z,106
2022-10-19T22:47:02.933Z,128
2022-10-19T22:50:02.939Z,113
2022-10-19T22:52:02.924Z,117
2022-10-19T22:54:02.952Z,105
2022-10-19T22:57:02.934Z,98
2022-10-19T22:59:02.957Z,95
2022-10-19T23:02:03.011Z,93
2022-10-19T23:05:02.931Z,115
2022-10-19T23:08:02.941Z,116
2022-10-19T23:11:02.966Z,101
2022-10-19T23:14:02.968Z,107
2022-10-19T23:17:02.932Z,93
2022-10-19T23:19:02.977Z,123
2022-10-19T23:22:02.921Z,100
2022-10-19T23:25:02.990Z,93
2022-10-19T23:28:02.922Z,100
2022-10-19T23:30:02.950Z,122
2022-10-19T23:33:03.081Z,94
2022-10-19T23:36:02.926Z,133
2022-10-19T23:38:02.962Z,141
2022-10-19T23:41:02.927Z,99
2022-10-19T23:44:02.916Z,127
2022-10-19T23:46:02.947Z,140
2022-10-19T23:49:02.956Z,120
2022-10-19T23:52:02.946Z,136
2022-10-19T23:54:02.983Z,84
2022-10-19T23:57:02.913Z,92
2022-10-19T23:59:02.948Z,100
